createdAt,value
2022-09-23T00:03:42.117Z,100898.94
2022-09-23T00:08:45.254Z,100904.08
2022-09-23T00:13:51.963Z,100895.70
2022-09-23T00:18:54.899Z,100889.70
2022-09-23T00:23:57.734Z,100886.56
2022-09-23T00:29:00.549Z,100891.40
2022-09-23T00:34:03.457Z,100892.95
2022-09-23T00:39:06.656Z,100888.58
2022-09-23T00:44:43.384Z,100883.23
2022-09-23T00:49:52.345Z,100884.38
2022-09-23T00:54:59.024Z,100884.20
2022-09-23T01:00:02.090Z,100890.42
2022-09-23T01:05:06.986Z,100886.75
2022-09-23T01:10:13.779Z,100880.96
2022-09-23T01:15:27.031Z,100881.60
2022-09-23T01:20:55.913Z,100877.35
2022-09-23T01:26:10.840Z,100873.09
2022-09-23T01:31:40.505Z,100868.14
2022-09-23T01:36:47.962Z,100871.12
2022-09-23T01:41:59.771Z,100870.46
2022-09-23T01:47:21.409Z,100872.35
2022-09-23T01:52:35.058Z,100871.65
2022-09-23T01:57:49.355Z,100868.81
2022-09-23T02:03:07.904Z,100871.61
2022-09-23T02:08:42.786Z,100872.73
2022-09-23T02:13:48.550Z,100871.63
2022-09-23T02:19:19.025Z,100868.40
2022-09-23T02:24:28.166Z,100868.70
2022-09-23T02:29:43.943Z,100869.35
2022-09-23T02:34:54.209Z,100863.58
2022-09-23T02:40:26.657Z,100862.31
2022-09-23T02:45:29.601Z,100861.46
2022-09-23T02:50:34.341Z,100865.44
2022-09-23T02:55:37.031Z,100863.13
2022-09-23T03:00:57.742Z,100856.33
2022-09-23T03:06:14.081Z,100851.79
2022-09-23T03:11:18.145Z,100851.00
2022-09-23T03:16:43.755Z,100854.32
2022-09-23T03:22:05.519Z,100852.74
2022-09-23T03:27:13.991Z,100846.46
2022-09-23T03:32:20.824Z,100847.67
2022-09-23T03:37:31.515Z,100844.23
2022-09-23T03:42:34.970Z,100843.34
2022-09-23T03:47:39.574Z,100840.23
2022-09-23T03:52:42.211Z,100845.64
2022-09-23T03:57:46.469Z,100845.13
2022-09-23T04:02:49.927Z,100836.14
2022-09-23T04:07:53.202Z,100834.51
2022-09-23T04:12:56.676Z,100832.52
2022-09-23T04:17:59.361Z,100833.16
2022-09-23T04:23:02.126Z,100833.95
2022-09-23T04:28:04.904Z,100828.48
2022-09-23T04:33:07.736Z,100836.95
2022-09-23T04:38:13.499Z,100828.14
2022-09-23T04:43:16.975Z,100826.07
2022-09-23T04:48:19.896Z,100817.77
2022-09-23T04:53:22.615Z,100818.65
2022-09-23T04:58:25.385Z,100819.61
2022-09-23T05:03:30.274Z,100816.73
2022-09-23T05:08:33.143Z,100821.25
2022-09-23T05:13:36.883Z,100819.39
2022-09-23T05:18:42.800Z,100818.97
2022-09-23T05:23:53.540Z,100819.43
2022-09-23T05:28:57.138Z,100812.11
2022-09-23T05:34:02.393Z,100811.72
2022-09-23T05:39:08.850Z,100824.64
2022-09-23T05:44:11.883Z,100832.21
2022-09-23T05:49:14.619Z,100834.48
2022-09-23T05:54:17.647Z,100828.05
2022-09-23T05:59:20.479Z,100828.98
2022-09-23T06:04:24.258Z,100831.23
2022-09-23T06:09:27.318Z,100834.76
2022-09-23T06:14:30.209Z,100835.06
2022-09-23T06:20:17.169Z,100832.33
2022-09-23T06:25:27.215Z,100825.39
2022-09-23T06:30:30.084Z,100833.31
2022-09-23T06:35:49.000Z,100839.32
2022-09-23T06:40:58.754Z,100842.55
2022-09-23T06:46:37.005Z,100845.39
2022-09-23T06:51:43.335Z,100836.55
2022-09-23T06:56:56.745Z,100834.14
2022-09-23T07:02:04.214Z,100832.79
2022-09-23T07:07:07.488Z,100834.66
2022-09-23T07:12:10.402Z,100836.31
2022-09-23T07:17:13.568Z,100831.52
2022-09-23T07:22:16.437Z,100829.40
2022-09-23T07:27:20.281Z,100833.87
2022-09-23T07:32:23.487Z,100831.70
2022-09-23T07:37:29.080Z,100822.21
2022-09-23T08:12:58.761Z,100814.67
2022-09-23T08:18:04.301Z,100811.61
2022-09-23T08:23:07.376Z,100811.10
2022-09-23T08:28:10.205Z,100807.55
2022-09-23T08:33:14.475Z,100808.30
2022-09-23T08:38:18.836Z,100809.59
2022-09-23T08:43:31.427Z,100804.02
2022-09-23T08:48:50.534Z,100802.35
2022-09-23T08:53:55.347Z,100803.56
2022-09-23T08:59:12.352Z,100805.11
2022-09-23T09:04:35.800Z,100800.10
2022-09-23T09:09:51.507Z,100801.96
2022-09-23T09:14:57.138Z,100796.98
2022-09-23T09:20:13.317Z,100794.67
2022-09-23T09:25:35.840Z,100788.70
2022-09-23T09:30:39.455Z,100775.21
2022-09-23T09:36:26.766Z,100756.75
2022-09-23T09:41:31.583Z,100760.51
2022-09-23T09:47:09.162Z,100766.24
2022-09-23T09:52:26.938Z,100765.23
2022-09-23T09:57:36.177Z,100763.68
2022-09-23T10:02:40.043Z,100767.52
2022-09-23T10:07:42.765Z,100760.94
2022-09-23T10:12:56.750Z,100753.90
2022-09-23T10:18:02.646Z,100753.01
2022-09-23T10:23:08.826Z,100743.60
2022-09-23T10:28:37.231Z,100737.58
2022-09-23T10:33:59.386Z,100735.34
2022-09-23T10:39:25.217Z,100736.33
2022-09-23T10:45:20.384Z,100734.59
2022-09-23T10:50:45.200Z,100731.52
2022-09-23T10:56:06.311Z,100727.74
2022-09-23T11:01:46.645Z,100727.55
2022-09-23T11:07:07.723Z,100726.26
2022-09-23T11:12:45.880Z,100725.18
2022-09-23T11:17:51.450Z,100725.16
2022-09-23T11:23:10.068Z,100719.81
2022-09-23T11:28:46.806Z,100717.18
2022-09-23T11:34:27.363Z,100713.75
2022-09-23T11:39:37.523Z,100710.27
2022-09-23T11:44:50.412Z,100708.54
2022-09-23T11:50:29.795Z,100710.42
2022-09-23T11:55:52.882Z,100709.83
2022-09-23T12:01:10.071Z,100714.34
2022-09-23T12:06:20.262Z,100713.02
2022-09-23T12:11:40.678Z,100710.95
2022-09-23T12:17:02.836Z,100709.34
2022-09-23T12:22:14.419Z,100702.91
2022-09-23T12:27:27.974Z,100695.97
2022-09-23T12:32:32.387Z,100691.64
2022-09-23T12:37:41.893Z,100687.05
2022-09-23T12:42:47.124Z,100686.06
2022-09-23T12:47:50.538Z,100689.31
2022-09-23T12:52:53.404Z,100688.90
2022-09-23T12:57:56.079Z,100683.59
2022-09-23T13:03:19.804Z,100680.81
2022-09-23T13:08:24.943Z,100678.83
2022-09-23T13:13:36.122Z,100671.77
2022-09-23T13:19:00.179Z,100668.47
2022-09-23T13:24:20.054Z,100668.12
2022-09-23T13:29:41.103Z,100661.20
2022-09-23T13:34:55.278Z,100654.78
2022-09-23T13:40:21.243Z,100650.30
2022-09-23T13:45:25.945Z,100643.81
2022-09-23T13:50:34.704Z,100648.81
2022-09-23T13:55:41.358Z,100634.55
2022-09-23T14:00:44.533Z,100631.29
2022-09-23T14:05:48.854Z,100631.69
2022-09-23T14:10:53.804Z,100625.57
2022-09-23T14:16:00.582Z,100619.68
2022-09-23T14:21:04.496Z,100611.71
2022-09-23T14:26:07.237Z,100603.05
2022-09-23T14:31:14.497Z,100597.92
2022-09-23T14:36:57.409Z,100593.88
2022-09-23T14:42:00.194Z,100595.48
2022-09-23T14:47:03.277Z,100590.67
2022-09-23T14:52:07.097Z,100586.70
2022-09-23T14:57:25.547Z,100586.48
2022-09-23T15:03:04.492Z,100590.17
2022-09-23T15:08:07.693Z,100585.35
2022-09-23T15:13:17.939Z,100579.99
2022-09-23T15:18:25.474Z,100579.66
2022-09-23T15:23:43.173Z,100577.10
2022-09-23T15:28:47.176Z,100577.25
2022-09-23T15:33:51.064Z,100572.45
2022-09-23T15:38:57.365Z,100569.00
2022-09-23T15:44:33.337Z,100564.56
2022-09-23T15:49:41.525Z,100564.02
2022-09-23T15:54:44.297Z,100563.36
2022-09-23T15:59:47.289Z,100561.16
2022-09-23T16:04:51.520Z,100560.56
2022-09-23T16:09:54.942Z,100557.56
2022-09-23T16:14:57.664Z,100558.21
2022-09-23T16:20:00.841Z,100555.60
2022-09-23T16:25:06.227Z,100554.96
2022-09-23T16:30:10.362Z,100556.56
2022-09-23T16:35:13.066Z,100552.75
2022-09-23T16:40:20.615Z,100553.93
2022-09-23T16:45:24.479Z,100558.73
2022-09-23T16:50:29.417Z,100558.61
2022-09-23T16:55:32.177Z,100557.86
2022-09-23T17:01:07.326Z,100553.82
2022-09-23T17:06:13.381Z,100549.20
2022-09-23T17:11:19.837Z,100549.15
2022-09-23T17:16:28.444Z,100544.66
2022-09-23T17:21:34.501Z,100537.36
2022-09-23T17:26:39.347Z,100531.33
2022-09-23T17:31:42.482Z,100534.37
2022-09-23T17:36:45.976Z,100538.73
2022-09-23T17:41:48.668Z,100534.34
2022-09-23T17:46:52.860Z,100536.64
2022-09-23T17:51:56.954Z,100537.64
2022-09-23T17:56:59.995Z,100538.11
2022-09-23T18:02:02.870Z,100537.53
2022-09-23T18:07:05.722Z,100540.58
2022-09-23T18:12:08.470Z,100536.61
2022-09-23T18:17:11.346Z,100543.25
2022-09-23T18:22:14.149Z,100543.80
2022-09-23T18:27:17.254Z,100539.60
2022-09-23T18:32:21.703Z,100540.98
2022-09-23T18:37:24.546Z,100544.58
2022-09-23T18:42:27.670Z,100543.50
2022-09-23T18:47:49.537Z,100542.52
2022-09-23T18:52:53.128Z,100541.60
2022-09-23T18:57:57.564Z,100535.26
2022-09-23T19:03:00.672Z,100537.48
2022-09-23T19:08:03.385Z,100536.05
2022-09-23T19:13:06.097Z,100536.79
2022-09-23T19:18:08.781Z,100539.11
2022-09-23T19:23:11.457Z,100544.17
2022-09-23T19:28:14.561Z,100543.22
2022-09-23T19:33:17.261Z,100539.20
2022-09-23T19:38:21.446Z,100544.64
2022-09-23T19:43:25.272Z,100552.12
2022-09-23T19:48:28.204Z,100551.29
2022-09-23T19:53:30.860Z,100552.44
2022-09-23T19:58:36.546Z,100550.83
2022-09-23T20:03:39.285Z,100541.83
2022-09-23T20:08:42.225Z,100540.71
2022-09-23T20:13:47.262Z,100529.71
2022-09-23T20:18:52.650Z,100522.52
2022-09-23T20:23:56.393Z,100514.92
2022-09-23T20:29:01.820Z,100515.61
2022-09-23T20:34:07.161Z,100515.97
2022-09-23T20:39:10.461Z,100515.39
2022-09-23T20:44:14.014Z,100518.98
2022-09-23T20:49:17.913Z,100515.19
2022-09-23T20:54:22.131Z,100519.11
2022-09-23T20:59:27.304Z,100522.39
2022-09-23T21:04:30.842Z,100520.94
2022-09-23T21:09:33.548Z,100519.09
2022-09-23T21:14:36.447Z,100522.59
2022-09-23T21:19:39.116Z,100525.20
2022-09-23T21:30:05.025Z,100526.16
2022-09-23T21:35:09.978Z,100519.80
2022-09-23T21:40:31.447Z,100514.30
2022-09-23T21:45:34.204Z,100511.48
2022-09-23T21:50:42.565Z,100515.33
2022-09-23T21:55:48.946Z,100509.04
2022-09-23T22:00:51.695Z,100511.73
2022-09-23T22:06:04.434Z,100511.02
2022-09-23T22:11:34.241Z,100510.09
2022-09-23T22:16:37.229Z,100514.92
2022-09-23T22:21:42.557Z,100517.11
2022-09-23T22:26:45.998Z,100510.79
2022-09-23T22:32:07.740Z,100516.81
2022-09-23T22:37:10.523Z,100515.45
2022-09-23T22:42:13.416Z,100512.79
2022-09-23T22:47:18.074Z,100512.27
2022-09-23T22:52:24.509Z,100508.04
2022-09-23T22:57:27.349Z,100505.48
2022-09-23T23:02:30.185Z,100505.46
2022-09-23T23:07:34.206Z,100499.23
2022-09-23T23:12:37.059Z,100494.54
2022-09-23T23:17:41.431Z,100497.04
2022-09-23T23:22:44.174Z,100492.95
2022-09-23T23:27:46.862Z,100490.23
2022-09-23T23:32:49.870Z,100489.73
2022-09-23T23:37:52.529Z,100489.25
2022-09-23T23:42:55.874Z,100489.96
2022-09-23T23:47:58.647Z,100487.98
2022-09-23T23:53:01.321Z,100489.80
2022-09-23T23:58:04.051Z,100491.13
